createdAt,value
2023-05-15T00:02:10.515Z,12.34
2023-05-15T00:04:41.955Z,12.38
2023-05-15T00:07:08.892Z,12.43
2023-05-15T00:09:38.082Z,12.48
2023-05-15T00:12:04.967Z,12.19
2023-05-15T00:14:33.728Z,12.26
2023-05-15T00:17:00.330Z,12.32
2023-05-15T00:19:29.226Z,12.23
2023-05-15T00:21:58.067Z,12.36
2023-05-15T00:24:24.672Z,12.26
2023-05-15T00:26:51.254Z,12.32
2023-05-15T00:29:17.875Z,12.46
2023-05-15T00:31:44.542Z,12.63
2023-05-15T00:34:13.651Z,12.68
2023-05-15T00:36:42.937Z,12.77
2023-05-15T00:39:09.623Z,12.65
2023-05-15T00:41:37.219Z,12.63
2023-05-15T00:44:04.133Z,12.44
2023-05-15T00:46:35.420Z,12.52
2023-05-15T00:49:05.328Z,12.63
2023-05-15T00:51:34.988Z,12.70
2023-05-15T00:54:02.709Z,12.85
2023-05-15T00:56:30.729Z,12.94
2023-05-15T00:58:59.812Z,12.90
2023-05-15T01:01:33.466Z,12.76
2023-05-15T01:04:02.279Z,12.87
2023-05-15T01:06:32.669Z,12.91
2023-05-15T01:09:06.949Z,12.64
2023-05-15T01:11:41.276Z,12.69
2023-05-15T01:14:08.826Z,12.67
2023-05-15T01:16:36.141Z,12.67
2023-05-15T01:19:06.663Z,12.74
2023-05-15T01:21:38.325Z,12.69
2023-05-15T01:24:26.219Z,12.56
2023-05-15T01:27:07.888Z,12.51
2023-05-15T01:29:56.226Z,12.59
2023-05-15T01:32:38.143Z,12.37
2023-05-15T01:35:36.080Z,12.20
2023-05-15T01:38:19.159Z,12.51
2023-05-15T01:40:49.442Z,12.32
2023-05-15T01:43:26.844Z,12.35
2023-05-15T01:45:54.735Z,12.41
2023-05-15T01:48:22.868Z,12.53
2023-05-15T01:50:51.883Z,12.19
2023-05-15T01:53:20.184Z,12.28
2023-05-15T01:55:48.870Z,12.21
2023-05-15T01:58:18.950Z,12.21
2023-05-15T02:00:48.804Z,12.41
2023-05-15T02:03:16.419Z,12.61
2023-05-15T02:05:43.368Z,12.67
2023-05-15T02:08:15.536Z,12.80
2023-05-15T02:10:43.136Z,12.73
2023-05-15T02:13:12.447Z,12.88
2023-05-15T02:15:39.301Z,12.90
2023-05-15T02:18:06.548Z,12.85
2023-05-15T02:20:35.804Z,12.92
2023-05-15T02:23:02.501Z,12.97
2023-05-15T02:25:40.754Z,13.02
2023-05-15T02:28:37.256Z,12.97
2023-05-15T02:31:18.873Z,12.99
2023-05-15T02:34:05.848Z,12.94
2023-05-15T02:36:37.046Z,12.84
2023-05-15T02:39:05.908Z,12.94
2023-05-15T02:41:40.071Z,13.02
2023-05-15T02:44:08.736Z,12.83
2023-05-15T02:46:37.398Z,12.89
2023-05-15T02:49:04.294Z,12.96
2023-05-15T02:51:33.254Z,12.86
2023-05-15T02:54:01.421Z,12.88
2023-05-15T02:56:30.552Z,12.89
2023-05-15T02:58:57.228Z,12.81
2023-05-15T03:01:23.846Z,12.90
2023-05-15T03:03:50.525Z,13.00
2023-05-15T03:06:19.421Z,13.13
2023-05-15T03:08:46.081Z,13.20
2023-05-15T03:11:12.747Z,13.21
2023-05-15T03:13:39.298Z,12.97
2023-05-15T03:16:06.271Z,12.86
2023-05-15T03:18:35.602Z,12.91
2023-05-15T03:21:02.233Z,12.65
2023-05-15T03:23:31.531Z,12.91
2023-05-15T03:26:00.547Z,13.05
2023-05-15T03:28:29.437Z,13.15
2023-05-15T03:30:58.469Z,13.17
2023-05-15T03:33:27.440Z,13.17
2023-05-15T03:35:56.308Z,12.86
2023-05-15T03:38:27.936Z,12.96
2023-05-15T03:40:56.734Z,13.14
2023-05-15T03:43:26.752Z,13.05
2023-05-15T03:45:55.922Z,13.12
2023-05-15T03:48:25.665Z,13.18
2023-05-15T03:50:57.163Z,13.30
2023-05-15T03:53:28.500Z,13.40
2023-05-15T03:55:57.899Z,13.28
2023-05-15T03:58:26.873Z,13.24
2023-05-15T04:00:55.942Z,13.30
2023-05-15T04:03:24.945Z,13.06
2023-05-15T04:05:52.161Z,13.15
2023-05-15T04:08:18.771Z,12.61
2023-05-15T04:10:50.307Z,12.41
2023-05-15T04:13:16.899Z,12.60
2023-05-15T04:15:46.656Z,12.76
2023-05-15T04:18:16.300Z,12.96
2023-05-15T04:20:43.001Z,13.08
2023-05-15T04:23:09.970Z,13.18
2023-05-15T04:25:43.186Z,13.28
2023-05-15T04:28:09.774Z,13.36
2023-05-15T04:30:36.646Z,13.37
2023-05-15T04:33:06.117Z,13.38
2023-05-15T04:35:33.002Z,13.43
2023-05-15T04:37:59.717Z,13.39
2023-05-15T04:40:26.398Z,13.42
2023-05-15T04:42:55.265Z,13.43
2023-05-15T04:45:24.598Z,13.40
2023-05-15T04:47:53.873Z,13.48
2023-05-15T04:50:23.223Z,13.45
2023-05-15T04:52:52.457Z,13.51
2023-05-15T04:55:19.061Z,13.54
2023-05-15T04:57:49.571Z,13.50
2023-05-15T05:00:16.586Z,13.42
2023-05-15T05:02:44.317Z,13.39
2023-05-15T05:05:16.994Z,13.38
2023-05-15T05:07:46.173Z,13.39
2023-05-15T05:10:15.487Z,13.53
2023-05-15T05:12:42.090Z,13.45
2023-05-15T05:15:09.611Z,13.62
2023-05-15T05:17:44.135Z,13.57
2023-05-15T05:20:13.540Z,13.41
2023-05-15T05:22:41.241Z,13.37
2023-05-15T05:25:08.254Z,13.22
2023-05-15T05:27:34.926Z,13.22
2023-05-15T05:30:04.227Z,13.32
2023-05-15T05:32:31.002Z,13.20
2023-05-15T05:34:59.936Z,13.16
2023-05-15T05:37:28.766Z,12.94
2023-05-15T05:39:55.739Z,12.87
2023-05-15T05:42:22.366Z,12.91
2023-05-15T05:44:48.967Z,13.27
2023-05-15T05:47:16.132Z,13.34
2023-05-15T05:49:48.241Z,13.45
2023-05-15T05:52:17.441Z,13.65
2023-05-15T05:54:46.535Z,13.66
2023-05-15T05:57:15.634Z,13.52
2023-05-15T05:59:45.972Z,13.67
2023-05-15T06:02:15.434Z,13.44
2023-05-15T06:04:44.439Z,13.47
2023-05-15T06:07:10.969Z,13.68
2023-05-15T06:09:39.994Z,13.86
2023-05-15T06:12:08.355Z,13.99
2023-05-15T06:14:36.151Z,13.90
2023-05-15T06:17:05.304Z,13.89
2023-05-15T06:19:32.610Z,13.96
2023-05-15T06:21:59.230Z,14.04
2023-05-15T06:24:27.990Z,14.18
2023-05-15T06:26:56.998Z,13.98
2023-05-15T06:29:25.946Z,13.92
2023-05-15T06:31:57.876Z,14.28
2023-05-15T06:34:24.615Z,14.39
2023-05-15T06:36:51.206Z,14.39
2023-05-15T06:39:20.211Z,14.54
2023-05-15T06:41:46.791Z,14.57
2023-05-15T06:44:13.370Z,14.70
2023-05-15T06:46:39.970Z,14.85
2023-05-15T06:49:09.060Z,14.86
2023-05-15T06:51:40.058Z,14.90
2023-05-15T06:54:06.881Z,14.98
2023-05-15T06:56:33.507Z,15.06
2023-05-15T06:59:00.131Z,14.90
2023-05-15T07:01:32.477Z,14.92
2023-05-15T07:03:59.189Z,14.94
2023-05-15T07:06:32.065Z,15.03
2023-05-15T07:09:01.913Z,15.15
2023-05-15T07:11:29.401Z,15.23
2023-05-15T07:13:58.400Z,15.25
2023-05-15T07:16:25.091Z,15.10
2023-05-15T07:18:54.046Z,15.30
2023-05-15T07:21:20.605Z,15.33
2023-05-15T07:23:49.539Z,15.27
2023-05-15T07:26:23.776Z,15.20
2023-05-15T07:29:00.485Z,15.18
2023-05-15T07:31:26.970Z,15.28
2023-05-15T07:33:53.606Z,14.99
2023-05-15T07:36:20.277Z,14.94
2023-05-15T07:38:46.974Z,15.15
2023-05-15T07:41:16.381Z,15.33
2023-05-15T07:43:42.975Z,15.50
2023-05-15T07:46:11.988Z,15.40
2023-05-15T07:48:38.861Z,15.40
2023-05-15T07:51:08.164Z,15.57
2023-05-15T07:53:37.230Z,15.75
2023-05-15T07:56:04.068Z,15.74
2023-05-15T07:58:30.677Z,15.67
2023-05-15T08:00:59.724Z,15.87
2023-05-15T08:03:26.509Z,15.89
2023-05-15T08:05:53.197Z,15.85
2023-05-15T08:08:19.780Z,15.71
2023-05-15T08:10:48.886Z,15.83
2023-05-15T08:13:17.761Z,15.88
2023-05-15T08:15:44.467Z,16.16
2023-05-15T08:18:13.316Z,16.17
2023-05-15T08:20:39.942Z,16.23
2023-05-15T08:23:08.819Z,16.29
2023-05-15T08:25:35.501Z,16.34
2023-05-15T08:28:05.200Z,16.33
2023-05-15T08:30:34.305Z,16.28
2023-05-15T08:33:03.460Z,16.29
2023-05-15T08:35:34.970Z,16.10
2023-05-15T08:38:01.764Z,16.29
2023-05-15T08:44:20.445Z,16.17
2023-05-15T08:46:49.991Z,16.47
2023-05-15T08:49:27.484Z,16.45
2023-05-15T08:51:55.631Z,16.53
2023-05-15T08:54:23.028Z,16.82
2023-05-15T08:56:49.901Z,16.88
2023-05-15T08:59:24.901Z,16.96
2023-05-15T09:01:54.376Z,16.89
2023-05-15T09:04:24.007Z,16.46
2023-05-15T09:06:51.611Z,16.61
2023-05-15T09:09:20.656Z,16.43
2023-05-15T09:11:51.860Z,16.28
2023-05-15T09:14:18.981Z,16.54
2023-05-15T09:16:49.544Z,16.71
2023-05-15T09:19:20.303Z,16.79
2023-05-15T09:21:49.799Z,17.02
2023-05-15T09:24:24.973Z,17.15
2023-05-15T09:27:07.377Z,17.23
2023-05-15T09:29:38.093Z,17.15
2023-05-15T09:32:06.442Z,16.92
2023-05-15T09:34:40.519Z,17.03
2023-05-15T09:37:09.696Z,17.10
2023-05-15T09:39:46.386Z,17.12
2023-05-15T09:42:14.830Z,17.41
2023-05-15T09:44:46.054Z,17.59
2023-05-15T09:47:14.321Z,17.45
2023-05-15T09:49:44.333Z,17.65
2023-05-15T09:52:11.111Z,17.51
2023-05-15T09:54:37.921Z,17.33
2023-05-15T09:57:14.274Z,17.37
2023-05-15T09:59:52.557Z,17.33
2023-05-15T10:02:36.375Z,17.61
2023-05-15T10:05:03.055Z,17.73
2023-05-15T10:07:36.167Z,17.98
2023-05-15T10:10:04.520Z,17.95
2023-05-15T10:12:40.108Z,18.15
2023-05-15T10:15:09.558Z,18.14
2023-05-15T10:17:39.895Z,17.71
2023-05-15T10:20:11.383Z,17.67
2023-05-15T10:22:46.161Z,17.88
2023-05-15T10:25:30.735Z,17.98
2023-05-15T10:27:58.464Z,18.09
2023-05-15T10:30:26.632Z,17.99
2023-05-15T10:32:54.056Z,18.07
2023-05-15T10:35:27.498Z,18.19
2023-05-15T10:37:54.711Z,18.29
2023-05-15T10:40:23.372Z,18.29
2023-05-15T10:42:50.473Z,18.35
2023-05-15T10:45:17.284Z,18.43
2023-05-15T10:47:45.522Z,18.57
2023-05-15T10:50:15.248Z,18.61
2023-05-15T10:52:42.191Z,18.21
2023-05-15T10:55:20.987Z,18.03
2023-05-15T10:57:47.826Z,18.60
2023-05-15T11:00:26.159Z,18.57
2023-05-15T11:02:55.381Z,18.62
2023-05-15T11:05:27.071Z,18.64
2023-05-15T11:08:28.645Z,18.42
2023-05-15T11:10:55.474Z,18.48
2023-05-15T11:13:22.074Z,18.78
2023-05-15T11:15:51.055Z,18.95
2023-05-15T11:18:17.889Z,18.94
2023-05-15T11:20:51.935Z,18.83
2023-05-15T11:23:27.606Z,18.46
2023-05-15T11:25:57.036Z,18.50
2023-05-15T11:28:25.900Z,18.64
2023-05-15T11:30:53.036Z,18.65
2023-05-15T11:33:24.442Z,18.59
2023-05-15T11:35:59.262Z,18.52
2023-05-15T11:38:28.878Z,18.51
2023-05-15T11:40:58.603Z,18.72
2023-05-15T11:43:48.689Z,18.59
2023-05-15T11:46:15.537Z,18.72
2023-05-15T11:48:44.405Z,18.73
2023-05-15T11:51:31.757Z,18.45
2023-05-15T11:53:58.982Z,18.30
2023-05-15T11:56:29.995Z,18.39
2023-05-15T11:59:01.323Z,18.27
2023-05-15T12:01:41.730Z,18.49
2023-05-15T12:04:15.655Z,18.41
2023-05-15T12:06:49.555Z,18.65
2023-05-15T12:09:19.480Z,18.71
2023-05-15T12:11:51.992Z,18.85
2023-05-15T12:14:28.975Z,18.71
2023-05-15T12:17:04.021Z,18.73
2023-05-15T12:19:31.135Z,18.58
2023-05-15T12:21:57.730Z,18.50
2023-05-15T12:24:26.733Z,18.51
2023-05-15T12:26:55.950Z,18.45
2023-05-15T12:29:29.360Z,18.45
2023-05-15T12:31:56.141Z,18.35
2023-05-15T12:34:22.882Z,18.45
2023-05-15T12:36:49.427Z,18.66
2023-05-15T12:39:18.253Z,18.65
2023-05-15T12:41:46.716Z,18.29
2023-05-15T12:44:22.239Z,18.41
2023-05-15T12:46:48.768Z,18.59
2023-05-15T12:49:21.493Z,18.78
2023-05-15T12:51:48.074Z,18.54
2023-05-15T12:54:20.975Z,19.06
2023-05-15T12:56:52.934Z,18.90
2023-05-15T12:59:19.637Z,19.09
2023-05-15T13:01:48.669Z,19.29
2023-05-15T13:04:18.459Z,19.37
2023-05-15T13:06:47.772Z,19.45
2023-05-15T13:09:14.846Z,19.25
2023-05-15T13:11:45.198Z,19.07
2023-05-15T13:14:17.190Z,19.25
2023-05-15T13:16:48.246Z,19.08
2023-05-15T13:19:15.928Z,18.64
2023-05-15T13:21:43.323Z,18.88
2023-05-15T13:24:12.469Z,19.16
2023-05-15T13:26:41.633Z,19.20
2023-05-15T13:29:10.962Z,19.12
2023-05-15T13:31:39.826Z,18.81
2023-05-15T13:34:06.521Z,18.63
2023-05-15T13:36:33.120Z,18.75
2023-05-15T13:38:59.649Z,18.51
2023-05-15T13:41:28.579Z,18.56
2023-05-15T13:43:59.948Z,18.74
2023-05-15T13:46:26.543Z,18.87
2023-05-15T13:48:55.543Z,18.80
2023-05-15T13:51:22.139Z,18.90
2023-05-15T13:53:48.706Z,18.55
2023-05-15T13:56:15.318Z,18.75
2023-05-15T13:58:42.550Z,18.36
2023-05-15T14:01:12.105Z,18.49
2023-05-15T14:03:38.879Z,18.69
2023-05-15T14:06:08.505Z,18.80
2023-05-15T14:08:35.057Z,18.65
2023-05-15T14:11:01.798Z,18.55
2023-05-15T14:13:31.702Z,18.40
2023-05-15T14:16:03.224Z,18.21
2023-05-15T14:18:32.296Z,18.33
2023-05-15T14:21:01.176Z,18.26
2023-05-15T14:23:30.803Z,18.25
2023-05-15T14:25:57.370Z,18.13
2023-05-15T14:28:23.930Z,18.48
2023-05-15T14:30:50.503Z,18.57
2023-05-15T14:33:20.040Z,18.78
2023-05-15T14:35:51.406Z,18.71
2023-05-15T14:38:18.010Z,18.53
2023-05-15T14:40:46.669Z,18.39
2023-05-15T14:43:13.210Z,18.40
2023-05-15T14:45:39.886Z,18.30
2023-05-15T14:48:09.628Z,18.18
2023-05-15T14:50:36.203Z,18.07
2023-05-15T14:53:02.806Z,17.59
2023-05-15T14:55:29.403Z,17.21
2023-05-15T14:57:58.129Z,17.12
2023-05-15T15:00:24.842Z,17.17
2023-05-15T15:02:54.666Z,17.54
2023-05-15T15:05:21.781Z,17.74
2023-05-15T15:08:04.914Z,17.87
2023-05-15T15:10:39.033Z,18.00
2023-05-15T15:13:10.151Z,17.79
2023-05-15T15:15:40.137Z,17.72
2023-05-15T15:18:07.813Z,17.79
2023-05-15T15:20:34.712Z,17.88
2023-05-15T15:23:04.921Z,17.84
2023-05-15T15:25:35.590Z,17.92
2023-05-15T15:28:02.858Z,18.07
2023-05-15T15:30:29.604Z,18.06
2023-05-15T15:32:59.147Z,18.03
2023-05-15T15:35:25.840Z,18.02
2023-05-15T15:37:53.170Z,18.03
2023-05-15T15:40:23.965Z,17.75
2023-05-15T15:42:50.931Z,17.95
2023-05-15T15:45:19.791Z,18.04
2023-05-15T15:47:46.273Z,18.12
2023-05-15T15:50:15.942Z,17.97
2023-05-15T15:52:44.920Z,18.00
2023-05-15T15:55:13.969Z,18.14
2023-05-15T15:57:42.758Z,18.10
2023-05-15T16:00:10.343Z,18.11
2023-05-15T16:02:37.047Z,18.25
2023-05-15T16:05:07.230Z,18.33
2023-05-15T16:07:36.514Z,18.38
2023-05-15T16:10:12.348Z,18.47
2023-05-15T16:12:57.511Z,18.47
2023-05-15T16:15:26.663Z,18.42
2023-05-15T16:17:54.329Z,18.39
2023-05-15T16:20:21.977Z,18.41
2023-05-15T16:22:48.594Z,18.41
2023-05-15T16:25:15.274Z,18.48
2023-05-15T16:27:41.854Z,18.51
2023-05-15T16:30:09.999Z,18.47
2023-05-15T16:32:41.996Z,18.12
2023-05-15T16:35:13.593Z,18.26
2023-05-15T16:37:50.406Z,18.32
2023-05-15T16:40:27.384Z,18.45
2023-05-15T16:42:54.155Z,18.21
2023-05-15T16:45:20.776Z,18.14
2023-05-15T16:47:49.656Z,18.15
2023-05-15T16:50:16.198Z,18.14
2023-05-15T16:52:45.964Z,17.96
2023-05-15T16:55:17.588Z,18.19
2023-05-15T16:57:47.396Z,18.09
2023-05-15T17:00:17.375Z,18.27
2023-05-15T17:02:56.322Z,18.20
2023-05-15T17:05:23.016Z,18.20
2023-05-15T17:07:49.592Z,17.99
2023-05-15T17:10:29.815Z,17.78
2023-05-15T17:12:56.639Z,17.29
2023-05-15T17:15:23.650Z,17.40
2023-05-15T17:17:50.424Z,17.31
2023-05-15T17:20:17.138Z,17.58
2023-05-15T17:22:43.811Z,17.66
2023-05-15T17:25:11.257Z,17.66
2023-05-15T17:27:42.747Z,17.70
2023-05-15T17:30:12.152Z,17.74
2023-05-15T17:32:39.464Z,17.65
2023-05-15T17:35:08.762Z,17.49
2023-05-15T17:37:35.332Z,17.34
2023-05-15T17:40:08.149Z,17.33
2023-05-15T17:42:37.141Z,17.01
2023-05-15T17:45:04.406Z,17.23
2023-05-15T17:47:38.766Z,17.23
2023-05-15T17:50:10.707Z,17.23
2023-05-15T17:52:43.984Z,17.25
2023-05-15T17:55:18.229Z,17.18
2023-05-15T18:01:45.171Z,17.00
2023-05-15T18:04:11.826Z,16.96
2023-05-15T18:06:40.938Z,16.88
2023-05-15T18:09:07.840Z,16.76
2023-05-15T18:11:34.497Z,16.40
2023-05-15T18:14:01.117Z,16.29
2023-05-15T18:16:32.935Z,16.15
2023-05-15T18:19:00.255Z,16.19
2023-05-15T18:21:29.374Z,15.98
2023-05-15T18:23:56.091Z,16.02
2023-05-15T18:26:25.878Z,16.04
2023-05-15T18:28:52.890Z,16.07
2023-05-15T18:31:19.603Z,15.76
2023-05-15T18:33:46.827Z,15.83
2023-05-15T18:36:16.046Z,15.94
2023-05-15T18:38:42.766Z,15.90
2023-05-15T18:41:09.353Z,15.87
2023-05-15T18:43:38.406Z,15.77
2023-05-15T18:46:05.758Z,15.65
2023-05-15T18:48:34.696Z,15.63
2023-05-15T18:51:03.279Z,15.90
2023-05-15T18:53:29.862Z,16.04
2023-05-15T18:55:56.385Z,16.14
2023-05-15T18:58:25.193Z,16.15
2023-05-15T19:00:51.807Z,16.07
2023-05-15T19:03:21.175Z,15.92
2023-05-15T19:05:50.188Z,15.75
2023-05-15T19:08:16.631Z,15.73
2023-05-15T19:10:50.777Z,15.65
2023-05-15T19:13:20.224Z,15.60
2023-05-15T19:15:54.252Z,15.60
2023-05-15T19:18:21.840Z,15.58
2023-05-15T19:20:52.044Z,15.53
2023-05-15T19:23:20.568Z,15.59
2023-05-15T19:25:47.259Z,15.58
2023-05-15T19:28:14.933Z,15.59
2023-05-15T19:30:44.514Z,15.43
2023-05-15T19:33:14.067Z,15.41
2023-05-15T19:35:43.199Z,15.22
2023-05-15T19:38:14.223Z,15.26
2023-05-15T19:40:45.789Z,15.23
2023-05-15T19:43:14.246Z,15.35
2023-05-15T19:45:41.949Z,15.28
2023-05-15T19:48:09.452Z,15.13
2023-05-15T19:50:41.665Z,15.10
2023-05-15T19:53:08.495Z,15.00
2023-05-15T19:55:37.515Z,15.08
2023-05-15T19:58:04.202Z,15.10
2023-05-15T20:00:31.489Z,15.14
2023-05-15T20:03:03.145Z,14.94
2023-05-15T20:05:32.261Z,15.04
2023-05-15T20:08:03.571Z,14.96
2023-05-15T20:10:35.247Z,15.01
2023-05-15T20:13:01.991Z,14.89
2023-05-15T20:15:35.089Z,14.79
2023-05-15T20:18:01.951Z,14.98
2023-05-15T20:20:29.306Z,14.84
2023-05-15T20:22:58.573Z,14.88
2023-05-15T20:25:29.179Z,14.97
2023-05-15T20:27:58.608Z,15.19
2023-05-15T20:30:25.494Z,15.38
2023-05-15T20:32:55.029Z,15.49
2023-05-15T20:35:23.989Z,15.43
2023-05-15T20:37:53.631Z,15.30
2023-05-15T20:40:23.644Z,15.27
2023-05-15T20:42:50.942Z,15.30
2023-05-15T20:45:20.269Z,15.29
2023-05-15T20:47:54.310Z,15.26
2023-05-15T20:50:20.955Z,15.12
2023-05-15T20:52:49.891Z,15.11
2023-05-15T20:55:17.227Z,15.05
2023-05-15T20:57:48.185Z,15.11
2023-05-15T21:00:16.948Z,15.06
2023-05-15T21:02:45.301Z,15.07
2023-05-15T21:05:12.223Z,15.13
2023-05-15T21:07:41.573Z,15.11
2023-05-15T21:10:08.978Z,15.15
2023-05-15T21:12:35.737Z,15.15
2023-05-15T21:15:06.242Z,15.08
2023-05-15T21:17:33.005Z,15.13
2023-05-15T21:20:01.160Z,15.14
2023-05-15T21:22:30.009Z,15.16
2023-05-15T21:24:56.617Z,15.16
2023-05-15T21:27:23.451Z,15.07
2023-05-15T21:29:53.726Z,15.10
2023-05-15T21:32:25.129Z,15.00
2023-05-15T21:34:53.944Z,14.99
2023-05-15T21:37:20.611Z,14.94
2023-05-15T21:39:49.418Z,14.83
2023-05-15T21:42:16.039Z,15.00
2023-05-15T21:44:44.978Z,15.03
2023-05-15T21:47:11.403Z,14.90
2023-05-15T21:49:43.399Z,14.85
2023-05-15T21:52:09.969Z,14.87
2023-05-15T21:54:38.888Z,14.86
2023-05-15T21:57:05.730Z,14.82
2023-05-15T21:59:37.065Z,14.60
2023-05-15T22:02:09.200Z,14.55
2023-05-15T22:04:35.978Z,14.48
2023-05-15T22:07:07.517Z,14.49
2023-05-15T22:09:36.432Z,14.59
2023-05-15T22:12:05.623Z,14.62
2023-05-15T22:14:35.112Z,14.70
2023-05-15T22:17:06.871Z,14.77
2023-05-15T22:19:34.218Z,14.64
2023-05-15T22:22:02.275Z,14.73
2023-05-15T22:24:33.969Z,14.49
2023-05-15T22:27:03.097Z,14.56
2023-05-15T22:29:31.869Z,14.66
2023-05-15T22:31:58.452Z,14.76
2023-05-15T22:34:29.006Z,14.81
2023-05-15T22:36:56.738Z,14.51
2023-05-15T22:39:25.623Z,14.53
2023-05-15T22:41:52.322Z,14.77
2023-05-15T22:44:18.910Z,14.68
2023-05-15T22:46:46.312Z,14.63
2023-05-15T22:49:19.297Z,14.80
2023-05-15T22:51:46.578Z,14.81
2023-05-15T22:54:15.626Z,14.89
2023-05-15T22:56:43.129Z,14.93
2023-05-15T22:59:10.536Z,14.57
2023-05-15T23:01:39.781Z,14.52
2023-05-15T23:04:09.035Z,14.24
2023-05-15T23:06:35.782Z,14.49
2023-05-15T23:09:02.456Z,14.55
2023-05-15T23:11:29.022Z,14.50
2023-05-15T23:13:58.428Z,14.56
2023-05-15T23:16:25.739Z,14.57
2023-05-15T23:18:56.573Z,14.70
2023-05-15T23:21:25.549Z,14.71
2023-05-15T23:23:54.569Z,14.72
2023-05-15T23:26:23.474Z,14.69
2023-05-15T23:28:50.605Z,14.68
2023-05-15T23:31:17.561Z,14.59
2023-05-15T23:33:44.271Z,14.60
2023-05-15T23:36:10.930Z,14.62
2023-05-15T23:38:37.555Z,14.51
2023-05-15T23:41:04.261Z,14.67
2023-05-15T23:43:32.212Z,14.48
2023-05-15T23:46:03.726Z,14.35
2023-05-15T23:48:33.653Z,14.53
2023-05-15T23:51:00.476Z,14.59
2023-05-15T23:53:27.026Z,14.64
2023-05-15T23:55:58.149Z,14.63
2023-05-15T23:58:27.233Z,14.56
